Columbia, Missouri
Current Conditions -  °F | °C
As of 8:01 AM on Saturday 25 Oct 2014 (Local Time) from KCOU Reporting Station
Moderate Fog Moderate Fog  
Wind Chill: 55°   Ceiling: 800
Heat Index: 55°   Visibility: 0.25mi
Dew Point: 55°   Wind: 6mph
Humidity: 100%   Direction: 240°WSW
Pressure: 30.04"   Gusts: NA
Location:  38.95°N, 92.33°W
Report Text: KCOU 251301Z 24005KT 1/4SM FG VV008 13/13 A3004 RMK AO2 T01280128 $
Loading
Personal Weather Stations






























Interactive Weather Map
Tropical Storm Tracking
New forecast layout! Learn more

10-Day Weather Forecast

Advertisements
Track Severe Weather on mobile